JANES2 LESU-LSZA
Flight info
| Callsign | JANES2 |
|---|---|
| Flight time | N/A |
| Altitude | 34000 |
| Route | REBUL1Z REBUL M601 BCN N870 DIBER DCT MAXIR DCT VOG VOG6L |
| Aircraft | B738/M-SDE2E3FGHIRWXY/LB1 |
Departure
| Time | 2026-04-23 17:44 |
|---|---|
| Airport | Pirineus - la Seu d'Urgel Airport (LESU) |
Arrival
| Time | N/A |
|---|---|
| Airport | Lugano Airport (LSZA) |
| Time | Latitude | Longitude | Altitude | Speed | Heading |
|---|---|---|---|---|---|
| 2026-04-23 17:30 | 42.33777 | 1.40392 | 2628 ft | 0 kts | 262° |
| 2026-04-23 17:38 | 42.33776 | 1.40382 | 2628 ft | 0 kts | 248° |
| 2026-04-23 17:38 | 42.33774 | 1.40381 | 2628 ft | 0 kts | 216° |
| 2026-04-23 17:38 | 42.33772 | 1.40380 | 2628 ft | 1 kts | 203° |
| 2026-04-23 17:39 | 42.33697 | 1.40442 | 2629 ft | 15 kts | 127° |
| 2026-04-23 17:39 | 42.33652 | 1.40537 | 2629 ft | 12 kts | 126° |
| 2026-04-23 17:39 | 42.33614 | 1.40648 | 2625 ft | 14 kts | 70° |
| 2026-04-23 17:39 | 42.33695 | 1.40731 | 2625 ft | 15 kts | 30° |
| 2026-04-23 17:40 | 42.33786 | 1.40804 | 2625 ft | 15 kts | 31° |
| 2026-04-23 17:40 | 42.33875 | 1.40876 | 2626 ft | 14 kts | 31° |
| 2026-04-23 17:40 | 42.33962 | 1.40948 | 2627 ft | 14 kts | 31° |
| 2026-04-23 17:40 | 42.34045 | 1.41015 | 2629 ft | 13 kts | 31° |
| 2026-04-23 17:41 | 42.34121 | 1.41077 | 2632 ft | 12 kts | 31° |
| 2026-04-23 17:41 | 42.34281 | 1.41209 | 2639 ft | 17 kts | 31° |
| 2026-04-23 17:41 | 42.34382 | 1.41289 | 2640 ft | 16 kts | 29° |
| 2026-04-23 17:42 | 42.34535 | 1.41509 | 2627 ft | 12 kts | 52° |
| 2026-04-23 17:42 | 42.34589 | 1.41518 | 2629 ft | 3 kts | 317° |
| 2026-04-23 17:42 | 42.34594 | 1.41509 | 2630 ft | 4 kts | 304° |
| 2026-04-23 17:43 | 42.34596 | 1.41479 | 2634 ft | 6 kts | 253° |
| 2026-04-23 17:43 | 42.34566 | 1.41438 | 2637 ft | 0 kts | 211° |
| 2026-04-23 17:43 | 42.34367 | 1.41281 | 2639 ft | 80 kts | 212° |
| 2026-04-23 17:44 | 42.33634 | 1.40693 | 2636 ft | 161 kts | 210° |
| 2026-04-23 17:44 | 42.32599 | 1.39957 | 3440 ft | 174 kts | 203° |
| 2026-04-23 17:44 | 42.30973 | 1.37896 | 5173 ft | 165 kts | 235° |
| 2026-04-23 17:45 | 42.30151 | 1.36635 | 5466 ft | 185 kts | 220° |
| 2026-04-23 17:45 | 42.27817 | 1.34919 | 6342 ft | 210 kts | 174° |
| 2026-04-23 17:45 | 42.26363 | 1.35332 | 6836 ft | 221 kts | 164° |
| 2026-04-23 17:46 | 42.24072 | 1.38130 | 7718 ft | 248 kts | 99° |
| 2026-04-23 17:46 | 42.24093 | 1.40469 | 8162 ft | 260 kts | 80° |
| 2026-04-23 17:46 | 42.24341 | 1.42986 | 8603 ft | 280 kts | 83° |
| 2026-04-23 17:47 | 42.24408 | 1.45646 | 9203 ft | 291 kts | 89° |
| 2026-04-23 17:47 | 42.24329 | 1.48423 | 9923 ft | 299 kts | 92° |
| 2026-04-23 17:47 | 42.24914 | 1.53933 | 11312 ft | 311 kts | 65° |
| 2026-04-23 17:48 | 42.25822 | 1.56681 | 11833 ft | 326 kts | 63° |
| 2026-04-23 17:48 | 42.26774 | 1.59500 | 12307 ft | 343 kts | 64° |
| 2026-04-23 17:48 | 42.27726 | 1.62539 | 12815 ft | 359 kts | 65° |
| 2026-04-23 17:48 | 42.28666 | 1.65755 | 13306 ft | 375 kts | 67° |
| 2026-04-23 17:49 | 42.29602 | 1.69102 | 13746 ft | 391 kts | 68° |
| 2026-04-23 17:49 | 42.30563 | 1.72611 | 14227 ft | 406 kts | 68° |
| 2026-04-23 17:49 | 42.31563 | 1.76289 | 14691 ft | 421 kts | 68° |
| 2026-04-23 17:49 | 42.32569 | 1.79999 | 15387 ft | 428 kts | 68° |
| 2026-04-23 17:50 | 42.33598 | 1.83790 | 16152 ft | 434 kts | 68° |
| 2026-04-23 17:50 | 42.35706 | 1.91528 | 17678 ft | 444 kts | 68° |
| 2026-04-23 17:50 | 42.36776 | 1.95448 | 18377 ft | 450 kts | 67° |
| 2026-04-23 17:51 | 42.37862 | 1.99435 | 19124 ft | 454 kts | 67° |
| 2026-04-23 17:51 | 42.38969 | 2.03497 | 19880 ft | 459 kts | 67° |
| 2026-04-23 17:51 | 42.41193 | 2.11667 | 21275 ft | 469 kts | 66° |
| 2026-04-23 17:52 | 42.42320 | 2.15815 | 21933 ft | 474 kts | 66° |
| 2026-04-23 17:52 | 42.44598 | 2.24215 | 23219 ft | 483 kts | 66° |
| 2026-04-23 17:52 | 42.45754 | 2.28490 | 23862 ft | 487 kts | 66° |
| 2026-04-23 17:53 | 42.48104 | 2.37202 | 25092 ft | 495 kts | 66° |
| 2026-04-23 17:53 | 42.49290 | 2.41609 | 25628 ft | 500 kts | 66° |
| 2026-04-23 17:53 | 42.50464 | 2.45986 | 26465 ft | 497 kts | 65° |
| 2026-04-23 17:54 | 42.51640 | 2.50392 | 27367 ft | 493 kts | 65° |
| 2026-04-23 17:54 | 42.52799 | 2.54740 | 28197 ft | 490 kts | 65° |
| 2026-04-23 17:54 | 42.55093 | 2.63359 | 29552 ft | 488 kts | 65° |
| 2026-04-23 17:55 | 42.57391 | 2.72006 | 30875 ft | 485 kts | 66° |
| 2026-04-23 17:55 | 42.58524 | 2.76282 | 31493 ft | 484 kts | 66° |
| 2026-04-23 17:55 | 42.59657 | 2.80562 | 32153 ft | 481 kts | 65° |
| 2026-04-23 17:56 | 42.60778 | 2.84806 | 32717 ft | 480 kts | 65° |
| 2026-04-23 17:56 | 42.63025 | 2.93331 | 33797 ft | 479 kts | 65° |
| 2026-04-23 17:56 | 42.64146 | 2.97594 | 34170 ft | 480 kts | 65° |
| 2026-04-23 17:57 | 42.66396 | 3.06170 | 34176 ft | 477 kts | 65° |
| 2026-04-23 17:58 | 42.69719 | 3.18907 | 34174 ft | 478 kts | 65° |
| 2026-04-23 17:58 | 42.71939 | 3.27457 | 34173 ft | 477 kts | 65° |
| 2026-04-23 17:59 | 42.74136 | 3.35943 | 34174 ft | 477 kts | 65° |
| 2026-04-23 17:59 | 42.76327 | 3.44439 | 34174 ft | 477 kts | 65° |
| 2026-04-23 18:00 | 42.78529 | 3.53008 | 34174 ft | 477 kts | 65° |
| 2026-04-23 18:00 | 42.80719 | 3.61555 | 34173 ft | 476 kts | 65° |
| 2026-04-23 18:01 | 42.82894 | 3.70080 | 34174 ft | 477 kts | 66° |
| 2026-04-23 18:01 | 42.85062 | 3.78609 | 34173 ft | 478 kts | 65° |
| 2026-04-23 18:02 | 42.86869 | 3.85743 | 34173 ft | 477 kts | 65° |
| 2026-04-23 18:02 | 42.89384 | 3.95704 | 34174 ft | 478 kts | 65° |
| 2026-04-23 18:03 | 42.91539 | 4.04275 | 34178 ft | 477 kts | 65° |
| 2026-04-23 18:03 | 42.93691 | 4.12862 | 34191 ft | 479 kts | 65° |
| 2026-04-23 18:04 | 42.95833 | 4.21446 | 34197 ft | 478 kts | 65° |
| 2026-04-23 18:04 | 42.97964 | 4.30016 | 34190 ft | 477 kts | 65° |
| 2026-04-23 18:05 | 43.00093 | 4.38608 | 34198 ft | 478 kts | 65° |
| 2026-04-23 18:05 | 43.01864 | 4.45782 | 34197 ft | 476 kts | 65° |
| 2026-04-23 18:06 | 43.04334 | 4.55825 | 34194 ft | 477 kts | 65° |
| 2026-04-23 18:06 | 43.06437 | 4.64407 | 34197 ft | 476 kts | 65° |
| 2026-04-23 18:07 | 43.08183 | 4.71553 | 34191 ft | 477 kts | 65° |
| 2026-04-23 18:07 | 43.10615 | 4.81557 | 34182 ft | 475 kts | 65° |
| 2026-04-23 18:08 | 43.12334 | 4.88655 | 34173 ft | 472 kts | 65° |
| 2026-04-23 18:08 | 43.14401 | 4.97209 | 34175 ft | 473 kts | 65° |
| 2026-04-23 18:09 | 43.16477 | 5.05835 | 34173 ft | 473 kts | 65° |
| 2026-04-23 18:09 | 43.18522 | 5.14360 | 34173 ft | 472 kts | 65° |
| 2026-04-23 18:10 | 43.20574 | 5.22950 | 34172 ft | 471 kts | 65° |
| 2026-04-23 18:10 | 43.22594 | 5.31444 | 34173 ft | 470 kts | 65° |
| 2026-04-23 18:11 | 43.24623 | 5.40000 | 34173 ft | 469 kts | 65° |
| 2026-04-23 18:11 | 43.26638 | 5.48532 | 34175 ft | 471 kts | 65° |
| 2026-04-23 18:12 | 43.28649 | 5.57080 | 34175 ft | 468 kts | 66° |
| 2026-04-23 18:12 | 43.30648 | 5.65613 | 34175 ft | 467 kts | 66° |
| 2026-04-23 18:13 | 43.32631 | 5.74106 | 34176 ft | 468 kts | 67° |
| 2026-04-23 18:13 | 43.34617 | 5.82645 | 34175 ft | 467 kts | 67° |
| 2026-04-23 18:14 | 43.36569 | 5.91075 | 34174 ft | 467 kts | 67° |
| 2026-04-23 18:14 | 43.38625 | 5.99564 | 34173 ft | 464 kts | 64° |
| 2026-04-23 18:15 | 43.41482 | 6.07395 | 34181 ft | 454 kts | 53° |
| 2026-04-23 18:15 | 43.45103 | 6.14418 | 34177 ft | 449 kts | 48° |
| 2026-04-23 18:16 | 43.48975 | 6.21207 | 34183 ft | 448 kts | 48° |
| 2026-04-23 18:16 | 43.52842 | 6.27921 | 34180 ft | 447 kts | 48° |
| 2026-04-23 18:17 | 43.58569 | 6.38038 | 34188 ft | 446 kts | 49° |
| 2026-04-23 18:17 | 43.62347 | 6.44802 | 34191 ft | 445 kts | 49° |
| 2026-04-23 18:18 | 43.66124 | 6.51601 | 34205 ft | 444 kts | 50° |
| 2026-04-23 18:18 | 43.69872 | 6.58371 | 34196 ft | 443 kts | 51° |
| 2026-04-23 18:19 | 43.73627 | 6.65174 | 34208 ft | 444 kts | 52° |
| 2026-04-23 18:19 | 43.77378 | 6.71986 | 34205 ft | 446 kts | 53° |
| 2026-04-23 18:20 | 43.81108 | 6.78778 | 34211 ft | 445 kts | 53° |
| 2026-04-23 18:20 | 43.84865 | 6.85631 | 34202 ft | 446 kts | 53° |
| 2026-04-23 18:21 | 43.88657 | 6.92566 | 34200 ft | 451 kts | 54° |
| 2026-04-23 18:21 | 43.92432 | 6.99487 | 34204 ft | 453 kts | 54° |
| 2026-04-23 18:22 | 43.96235 | 7.06478 | 34206 ft | 452 kts | 54° |
| 2026-04-23 18:22 | 44.00015 | 7.13443 | 34198 ft | 450 kts | 54° |
| 2026-04-23 18:23 | 44.05691 | 7.23929 | 34211 ft | 451 kts | 54° |
| 2026-04-23 18:24 | 44.11326 | 7.34375 | 34212 ft | 449 kts | 54° |
| 2026-04-23 18:25 | 44.16929 | 7.44802 | 34205 ft | 448 kts | 54° |
| 2026-04-23 18:25 | 44.20653 | 7.51753 | 34200 ft | 448 kts | 54° |
| 2026-04-23 18:26 | 44.24367 | 7.58701 | 34203 ft | 446 kts | 54° |
| 2026-04-23 18:26 | 44.28045 | 7.65597 | 34205 ft | 445 kts | 54° |
| 2026-04-23 18:27 | 44.31736 | 7.72536 | 34198 ft | 446 kts | 54° |
| 2026-04-23 18:27 | 44.35422 | 7.79481 | 34178 ft | 445 kts | 54° |
| 2026-04-23 18:28 | 44.39085 | 7.86397 | 34176 ft | 444 kts | 54° |
| 2026-04-23 18:28 | 44.42778 | 7.93387 | 34171 ft | 444 kts | 54° |
| 2026-04-23 18:29 | 44.46417 | 8.00293 | 34169 ft | 444 kts | 54° |
| 2026-04-23 18:29 | 44.50091 | 8.07284 | 34170 ft | 445 kts | 54° |
| 2026-04-23 18:30 | 44.53764 | 8.14288 | 34165 ft | 443 kts | 54° |
| 2026-04-23 18:30 | 44.57417 | 8.21272 | 34157 ft | 442 kts | 54° |
| 2026-04-23 18:31 | 44.61031 | 8.28196 | 34150 ft | 442 kts | 54° |
| 2026-04-23 18:31 | 44.64642 | 8.35131 | 33673 ft | 434 kts | 54° |
| 2026-04-23 18:31 | 44.66430 | 8.38570 | 33121 ft | 429 kts | 54° |
| 2026-04-23 18:32 | 44.68180 | 8.41943 | 32441 ft | 428 kts | 54° |
| 2026-04-23 18:32 | 44.69929 | 8.45317 | 31681 ft | 428 kts | 54° |
| 2026-04-23 18:32 | 44.71671 | 8.48681 | 30884 ft | 428 kts | 54° |
| 2026-04-23 18:32 | 44.73416 | 8.52056 | 30029 ft | 429 kts | 54° |
| 2026-04-23 18:33 | 44.75184 | 8.55477 | 29125 ft | 430 kts | 54° |
| 2026-04-23 18:33 | 44.76928 | 8.58859 | 28218 ft | 430 kts | 54° |
| 2026-04-23 18:33 | 44.78688 | 8.62273 | 27275 ft | 432 kts | 54° |
| 2026-04-23 18:33 | 44.80441 | 8.65679 | 26296 ft | 433 kts | 54° |
| 2026-04-23 18:34 | 44.82214 | 8.69128 | 25277 ft | 435 kts | 54° |
| 2026-04-23 18:34 | 44.83989 | 8.72583 | 24626 ft | 428 kts | 54° |
| 2026-04-23 18:34 | 44.85698 | 8.75916 | 24201 ft | 424 kts | 54° |
| 2026-04-23 18:34 | 44.87486 | 8.79360 | 23627 ft | 439 kts | 52° |
| 2026-04-23 18:35 | 44.89397 | 8.82663 | 22988 ft | 437 kts | 48° |
| 2026-04-23 18:35 | 44.91582 | 8.85552 | 22354 ft | 428 kts | 38° |
| 2026-04-23 18:35 | 44.94034 | 8.87874 | 21724 ft | 421 kts | 31° |
| 2026-04-23 18:35 | 44.96664 | 8.89716 | 21088 ft | 415 kts | 24° |
| 2026-04-23 18:36 | 44.99308 | 8.91185 | 20471 ft | 409 kts | 20° |
| 2026-04-23 18:36 | 45.02063 | 8.92232 | 19836 ft | 404 kts | 12° |
| 2026-04-23 18:36 | 45.04832 | 8.92680 | 19223 ft | 399 kts | 5° |
| 2026-04-23 18:36 | 45.07586 | 8.92640 | 18632 ft | 395 kts | 359° |
| 2026-04-23 18:37 | 45.10346 | 8.92243 | 18017 ft | 408 kts | 354° |
| 2026-04-23 18:37 | 45.13128 | 8.91514 | 17385 ft | 412 kts | 350° |
| 2026-04-23 18:37 | 45.15916 | 8.90582 | 16733 ft | 406 kts | 348° |
| 2026-04-23 18:37 | 45.18639 | 8.89583 | 16085 ft | 400 kts | 347° |
| 2026-04-23 18:38 | 45.21313 | 8.88579 | 15437 ft | 394 kts | 347° |
| 2026-04-23 18:38 | 45.23908 | 8.87614 | 14809 ft | 387 kts | 347° |
| 2026-04-23 18:38 | 45.26493 | 8.86673 | 14198 ft | 382 kts | 347° |
| 2026-04-23 18:38 | 45.29050 | 8.85760 | 13576 ft | 376 kts | 348° |
| 2026-04-23 18:39 | 45.31585 | 8.84867 | 12932 ft | 370 kts | 348° |
| 2026-04-23 18:39 | 45.34054 | 8.84003 | 12314 ft | 365 kts | 348° |
| 2026-04-23 18:39 | 45.36597 | 8.83119 | 11735 ft | 377 kts | 348° |
| 2026-04-23 18:39 | 45.39111 | 8.82245 | 11358 ft | 369 kts | 347° |
| 2026-04-23 18:40 | 45.41566 | 8.81388 | 11139 ft | 352 kts | 347° |
| 2026-04-23 18:40 | 45.43907 | 8.80568 | 11002 ft | 335 kts | 347° |
| 2026-04-23 18:40 | 45.46083 | 8.79803 | 10836 ft | 309 kts | 347° |
| 2026-04-23 18:40 | 45.48108 | 8.79092 | 10726 ft | 294 kts | 348° |
| 2026-04-23 18:41 | 45.50056 | 8.78409 | 10580 ft | 282 kts | 347° |
| 2026-04-23 18:41 | 45.51931 | 8.77753 | 10466 ft | 268 kts | 348° |
| 2026-04-23 18:41 | 45.53690 | 8.77137 | 10331 ft | 255 kts | 347° |
| 2026-04-23 18:41 | 45.55401 | 8.76536 | 10081 ft | 245 kts | 347° |
| 2026-04-23 18:42 | 45.57023 | 8.75967 | 9757 ft | 235 kts | 348° |
| 2026-04-23 18:42 | 45.58578 | 8.75420 | 9458 ft | 225 kts | 348° |
| 2026-04-23 18:42 | 45.60080 | 8.74892 | 9174 ft | 221 kts | 348° |
| 2026-04-23 18:42 | 45.61566 | 8.74370 | 8874 ft | 219 kts | 348° |
| 2026-04-23 18:43 | 45.63055 | 8.73852 | 8587 ft | 216 kts | 349° |
| 2026-04-23 18:43 | 45.64530 | 8.73639 | 8316 ft | 213 kts | 7° |
| 2026-04-23 18:43 | 45.65944 | 8.74213 | 8172 ft | 212 kts | 21° |
| 2026-04-23 18:43 | 45.67310 | 8.75002 | 8108 ft | 205 kts | 21° |
| 2026-04-23 18:44 | 45.68612 | 8.75691 | 8035 ft | 195 kts | 19° |
| 2026-04-23 18:44 | 45.69869 | 8.76309 | 7980 ft | 180 kts | 18° |
| 2026-04-23 18:44 | 45.71027 | 8.76869 | 7917 ft | 176 kts | 18° |
| 2026-04-23 18:44 | 45.72174 | 8.77426 | 7887 ft | 174 kts | 18° |
| 2026-04-23 18:45 | 45.73308 | 8.77980 | 7810 ft | 169 kts | 19° |
| 2026-04-23 18:45 | 45.74414 | 8.78521 | 7747 ft | 168 kts | 19° |
| 2026-04-23 18:45 | 45.75527 | 8.79064 | 7685 ft | 169 kts | 19° |
| 2026-04-23 18:45 | 45.76655 | 8.79616 | 7621 ft | 169 kts | 19° |
| 2026-04-23 18:46 | 45.77771 | 8.80161 | 7559 ft | 168 kts | 19° |
| 2026-04-23 18:46 | 45.78853 | 8.80690 | 7491 ft | 162 kts | 19° |
| 2026-04-23 18:46 | 45.79919 | 8.81212 | 7432 ft | 161 kts | 19° |
| 2026-04-23 18:46 | 45.80991 | 8.81738 | 7375 ft | 162 kts | 19° |
| 2026-04-23 18:47 | 45.82060 | 8.82261 | 7318 ft | 162 kts | 19° |
| 2026-04-23 18:47 | 45.83110 | 8.82775 | 7254 ft | 156 kts | 19° |
| 2026-04-23 18:47 | 45.84092 | 8.83257 | 7190 ft | 137 kts | 18° |
| 2026-04-23 18:47 | 45.84996 | 8.83700 | 7110 ft | 136 kts | 18° |
| 2026-04-23 18:48 | 45.85885 | 8.84136 | 6960 ft | 135 kts | 19° |
| 2026-04-23 18:48 | 45.86779 | 8.84575 | 6768 ft | 135 kts | 18° |
| 2026-04-23 18:48 | 45.87695 | 8.84824 | 6575 ft | 133 kts | 7° |
| 2026-04-23 18:48 | 45.88617 | 8.85141 | 6148 ft | 140 kts | 20° |
| 2026-04-23 18:49 | 45.89540 | 8.85661 | 5648 ft | 143 kts | 21° |
| 2026-04-23 18:49 | 45.90454 | 8.86161 | 5218 ft | 142 kts | 20° |
| 2026-04-23 18:49 | 45.91375 | 8.86596 | 4871 ft | 137 kts | 18° |
| 2026-04-23 18:49 | 45.92291 | 8.87047 | 4406 ft | 141 kts | 18° |
| 2026-04-23 18:50 | 45.92910 | 8.87329 | 4192 ft | 136 kts | 17° |
| 2026-04-23 18:50 | 45.94123 | 8.87931 | 3576 ft | 141 kts | 21° |
| 2026-04-23 18:50 | 45.95042 | 8.88376 | 3135 ft | 142 kts | 18° |
| 2026-04-23 18:50 | 45.95998 | 8.88804 | 2566 ft | 148 kts | 18° |
| 2026-04-23 18:51 | 45.96994 | 8.89313 | 1947 ft | 155 kts | 20° |
| 2026-04-23 18:51 | 45.98023 | 8.89834 | 1360 ft | 156 kts | 19° |
| 2026-04-23 18:51 | 45.99010 | 8.90327 | 1036 ft | 142 kts | 20° |
| 2026-04-23 18:51 | 45.99880 | 8.90778 | 926 ft | 128 kts | 19° |
| 2026-04-23 18:52 | 46.00694 | 8.91197 | 924 ft | 115 kts | 18° |
| 2026-04-23 18:52 | 46.01308 | 8.91541 | 929 ft | 80 kts | 23° |
| 2026-04-23 18:52 | 46.01761 | 8.91431 | 960 ft | 54 kts | 290° |